createdAt,value
2023-03-27T00:01:12.952Z,97792.69
2023-03-27T00:03:40.869Z,97784.97
2023-03-27T00:06:12.454Z,97793.88
2023-03-27T00:08:39.429Z,97793.06
2023-03-27T00:11:08.032Z,97805.47
2023-03-27T00:13:36.597Z,97809.16
2023-03-27T00:16:16.424Z,97824.72
2023-03-27T00:18:44.746Z,97817.75
2023-03-27T00:21:11.531Z,97821.47
2023-03-27T00:23:38.296Z,97838.44
2023-03-27T00:26:05.509Z,97836.94
2023-03-27T00:28:32.801Z,97842.72
2023-03-27T00:31:00.140Z,97854.31
2023-03-27T00:33:27.636Z,97858.63
2023-03-27T00:35:54.896Z,97859.63
2023-03-27T00:38:22.364Z,97866.38
2023-03-27T00:40:51.068Z,97868.91
2023-03-27T00:43:28.692Z,97883.00
2023-03-27T00:46:42.414Z,97881.69
2023-03-27T00:49:15.008Z,97887.38
2023-03-27T00:51:49.750Z,97893.38
2023-03-27T00:54:25.534Z,97897.56
2023-03-27T00:57:01.949Z,97906.53
2023-03-27T00:59:34.682Z,97907.34
2023-03-27T01:02:03.801Z,97916.03
2023-03-27T01:04:33.190Z,97922.13
2023-03-27T01:07:00.840Z,97914.31
2023-03-27T01:09:27.841Z,97931.31
2023-03-27T01:12:11.129Z,97939.16
2023-03-27T01:14:56.660Z,97942.47
2023-03-27T01:18:17.890Z,97947.75
2023-03-27T01:21:38.510Z,97945.66
2023-03-27T01:24:38.632Z,97958.03
2023-03-27T01:27:37.741Z,97972.69
2023-03-27T01:30:33.736Z,97964.38
2023-03-27T01:33:21.448Z,97981.88
2023-03-27T01:36:08.160Z,97981.34
2023-03-27T01:39:11.046Z,97986.31
2023-03-27T01:42:00.609Z,97994.97
2023-03-27T01:44:52.953Z,97993.88
2023-03-27T01:47:40.933Z,97997.00
2023-03-27T01:50:16.486Z,98004.09
2023-03-27T01:52:52.551Z,98016.00
2023-03-27T01:55:26.375Z,98023.97
2023-03-27T01:58:05.150Z,98031.47
2023-03-27T02:00:51.297Z,98050.31
2023-03-27T02:03:36.874Z,98055.47
2023-03-27T02:06:12.156Z,98063.63
2023-03-27T02:09:12.300Z,98072.00
2023-03-27T02:11:52.815Z,98076.94
2023-03-27T02:14:28.555Z,98085.88
2023-03-27T02:17:07.897Z,98087.03
2023-03-27T02:19:42.878Z,98096.28
2023-03-27T02:22:09.808Z,98110.09
2023-03-27T02:24:38.678Z,98126.53
2023-03-27T02:27:32.574Z,98130.59
2023-03-27T02:30:26.971Z,98123.91
2023-03-27T02:33:27.481Z,98147.09
2023-03-27T02:36:13.082Z,98150.03
2023-03-27T02:39:03.119Z,98153.91
2023-03-27T02:41:34.750Z,98159.28
2023-03-27T02:44:29.047Z,98166.47
2023-03-27T02:47:11.923Z,98169.16
2023-03-27T02:49:51.350Z,98178.31
2023-03-27T02:52:33.074Z,98185.88
2023-03-27T02:55:10.751Z,98198.81
2023-03-27T02:57:39.149Z,98198.03
2023-03-27T03:00:28.314Z,98193.75
2023-03-27T03:03:13.635Z,98207.72
2023-03-27T03:05:41.106Z,98208.63
2023-03-27T03:08:10.224Z,98215.63
2023-03-27T03:10:44.235Z,98214.63
2023-03-27T03:13:11.447Z,98219.41
2023-03-27T03:15:39.587Z,98231.81
2023-03-27T03:18:07.669Z,98236.16
2023-03-27T03:20:35.343Z,98246.34
2023-03-27T03:23:02.480Z,98257.38
2023-03-27T03:25:31.241Z,98261.72
2023-03-27T03:28:01.492Z,98258.25
2023-03-27T03:30:31.272Z,98278.72
2023-03-27T03:32:58.622Z,98269.34
2023-03-27T03:35:26.301Z,98284.69
2023-03-27T03:37:53.128Z,98295.44
2023-03-27T03:40:21.144Z,98308.91
2023-03-27T03:42:50.885Z,98321.88
2023-03-27T03:45:19.247Z,98327.31
2023-03-27T03:47:46.924Z,98336.47
2023-03-27T03:50:15.540Z,98342.09
2023-03-27T03:52:43.254Z,98345.88
2023-03-27T03:55:15.762Z,98353.38
2023-03-27T03:57:47.228Z,98367.09
2023-03-27T04:00:17.117Z,98375.16
2023-03-27T04:02:45.202Z,98384.84
2023-03-27T04:05:12.037Z,98388.66
2023-03-27T04:07:40.519Z,98404.53
2023-03-27T04:10:11.024Z,98403.19
2023-03-27T04:12:37.824Z,98414.25
2023-03-27T04:15:05.530Z,98415.88
2023-03-27T04:17:33.249Z,98423.94
2023-03-27T04:20:00.256Z,98438.16
2023-03-27T04:22:27.064Z,98441.38
2023-03-27T04:24:53.936Z,98440.59
2023-03-27T04:27:23.425Z,98448.66
2023-03-27T04:29:50.207Z,98464.25
2023-03-27T04:32:19.232Z,98474.47
2023-03-27T04:34:49.202Z,98482.25
2023-03-27T04:37:16.646Z,98479.31
2023-03-27T04:39:50.299Z,98483.31
2023-03-27T04:42:17.045Z,98494.06
2023-03-27T04:44:46.488Z,98502.13
2023-03-27T04:47:13.420Z,98508.56
2023-03-27T04:49:49.620Z,98520.91
2023-03-27T04:52:19.733Z,98536.75
2023-03-27T04:54:46.623Z,98535.66
2023-03-27T04:57:15.622Z,98549.63
2023-03-27T04:59:42.839Z,98546.69
2023-03-27T05:02:10.904Z,98554.22
2023-03-27T05:04:38.777Z,98566.00
2023-03-27T05:07:05.741Z,98567.09
2023-03-27T05:09:32.627Z,98570.31
2023-03-27T05:11:59.567Z,98567.34
2023-03-27T05:14:26.406Z,98581.59
2023-03-27T05:16:53.205Z,98580.75
2023-03-27T05:19:20.222Z,98592.31
2023-03-27T05:21:47.982Z,98596.63
2023-03-27T05:24:15.995Z,98598.72
2023-03-27T05:26:43.248Z,98605.44
2023-03-27T05:29:10.207Z,98618.38
2023-03-27T05:31:37.408Z,98616.00
2023-03-27T05:34:05.572Z,98628.03
2023-03-27T05:36:32.746Z,98637.44
2023-03-27T05:38:59.630Z,98652.75
2023-03-27T05:41:26.447Z,98648.97
2023-03-27T05:43:53.472Z,98652.50
2023-03-27T05:46:21.572Z,98651.66
2023-03-27T05:48:48.912Z,98665.09
2023-03-27T05:51:17.469Z,98660.56
2023-03-27T05:53:44.230Z,98675.03
2023-03-27T05:56:11.123Z,98670.72
2023-03-27T05:58:38.671Z,98676.09
2023-03-27T06:01:05.905Z,98678.22
2023-03-27T06:03:36.914Z,98686.56
2023-03-27T06:06:12.291Z,98690.88
2023-03-27T06:08:39.104Z,98698.06
2023-03-27T06:11:11.693Z,98704.53
2023-03-27T06:13:39.148Z,98722.28
2023-03-27T06:16:07.295Z,98722.81
2023-03-27T06:18:34.498Z,98727.13
2023-03-27T06:21:01.676Z,98736.50
2023-03-27T06:23:28.914Z,98741.63
2023-03-27T06:25:55.944Z,98741.06
2023-03-27T06:28:22.801Z,98745.88
2023-03-27T06:30:50.325Z,98766.38
2023-03-27T06:33:17.190Z,98764.47
2023-03-27T06:35:53.199Z,98769.03
2023-03-27T06:38:21.171Z,98773.88
2023-03-27T06:40:48.144Z,98780.91
2023-03-27T06:43:18.922Z,98780.94
2023-03-27T06:45:51.545Z,98786.03
2023-03-27T06:48:22.367Z,98791.69
2023-03-27T06:50:52.682Z,98802.50
2023-03-27T06:55:51.328Z,98818.13
2023-03-27T06:58:19.303Z,98813.09
2023-03-27T07:00:49.609Z,98832.22
2023-03-27T07:03:19.901Z,98829.84
2023-03-27T07:05:46.962Z,98833.88
2023-03-27T07:10:56.288Z,98843.59
2023-03-27T07:13:27.283Z,98840.34
2023-03-27T07:15:54.855Z,98845.22
2023-03-27T07:18:22.586Z,98836.69
2023-03-27T07:20:50.393Z,98849.63
2023-03-27T07:23:17.690Z,98847.97
2023-03-27T07:25:44.459Z,98847.38
2023-03-27T07:28:16.638Z,98860.28
2023-03-27T07:30:43.961Z,98853.81
2023-03-27T07:33:10.904Z,98856.53
2023-03-27T07:35:46.756Z,98870.81
2023-03-27T07:38:14.439Z,98876.94
2023-03-27T07:40:45.821Z,98875.34
2023-03-27T07:43:13.264Z,98875.91
2023-03-27T07:45:41.214Z,98890.72
2023-03-27T07:48:14.176Z,98890.47
2023-03-27T07:50:40.890Z,98892.63
2023-03-27T07:53:07.745Z,98896.19
2023-03-27T07:55:37.570Z,98909.44
2023-03-27T07:58:06.592Z,98916.19
2023-03-27T08:00:38.828Z,98923.72
2023-03-27T08:03:12.041Z,98915.41
2023-03-27T08:05:38.973Z,98912.22
2023-03-27T08:08:05.994Z,98927.34
2023-03-27T08:10:32.974Z,98933.59
2023-03-27T08:13:00.769Z,98921.75
2023-03-27T08:15:27.627Z,98930.38
2023-03-27T08:17:56.656Z,98938.72
2023-03-27T08:20:24.247Z,98927.94
2023-03-27T08:22:52.663Z,98944.13
2023-03-27T08:25:22.206Z,98946.50
2023-03-27T08:27:49.492Z,98949.69
2023-03-27T08:30:17.518Z,98950.25
2023-03-27T08:32:45.037Z,98948.06
2023-03-27T08:35:13.413Z,98955.31
2023-03-27T08:37:41.477Z,98953.06
2023-03-27T08:40:23.497Z,98964.59
2023-03-27T08:42:56.946Z,98964.22
2023-03-27T08:45:41.009Z,98978.06
2023-03-27T08:48:18.424Z,98969.81
2023-03-27T08:51:16.278Z,98980.75
2023-03-27T08:53:58.755Z,98981.09
2023-03-27T08:56:27.540Z,98982.19
2023-03-27T08:58:54.824Z,98983.53
2023-03-27T09:01:46.253Z,98992.38
2023-03-27T09:04:42.918Z,98997.22
2023-03-27T09:07:37.168Z,99003.63
2023-03-27T09:10:35.775Z,98984.03
2023-03-27T09:13:17.894Z,98993.97
2023-03-27T09:16:17.315Z,99004.72
2023-03-27T09:19:15.393Z,99003.69
2023-03-27T09:21:54.946Z,99005.38
2023-03-27T09:24:40.539Z,99012.34
2023-03-27T09:27:18.299Z,99005.41
2023-03-27T09:30:04.941Z,99011.31
2023-03-27T09:32:33.478Z,99018.41
2023-03-27T09:35:01.174Z,99014.72
2023-03-27T09:37:28.458Z,99017.88
2023-03-27T09:39:58.745Z,99009.84
2023-03-27T09:42:37.567Z,99011.03
2023-03-27T09:45:10.848Z,99025.38
2023-03-27T09:47:51.129Z,99029.59
2023-03-27T09:50:35.855Z,99035.31
2023-03-27T09:53:15.197Z,99039.47
2023-03-27T09:55:58.330Z,99037.38
2023-03-27T09:58:32.209Z,99019.16
2023-03-27T10:01:31.328Z,99035.88
2023-03-27T10:03:59.631Z,99035.88
2023-03-27T10:06:38.570Z,99042.19
2023-03-27T10:09:34.198Z,99043.13
2023-03-27T10:12:07.426Z,99050.97
2023-03-27T10:14:42.105Z,99044.72
2023-03-27T10:17:24.444Z,99049.44
2023-03-27T10:19:57.040Z,99060.22
2023-03-27T10:22:33.755Z,99051.63
2023-03-27T10:25:17.511Z,99052.31
2023-03-27T10:27:44.343Z,99057.34
2023-03-27T10:30:33.314Z,99067.56
2023-03-27T10:33:00.306Z,99055.13
2023-03-27T10:35:40.168Z,99058.00
2023-03-27T10:38:15.329Z,99069.13
2023-03-27T10:40:50.011Z,99068.13
2023-03-27T10:43:42.585Z,99062.59
2023-03-27T10:46:30.948Z,99063.28
2023-03-27T10:49:28.747Z,99056.13
2023-03-27T10:52:25.586Z,99063.88
2023-03-27T10:55:15.385Z,99061.91
2023-03-27T10:57:48.385Z,99064.34
2023-03-27T11:00:39.248Z,99077.84
2023-03-27T11:03:30.010Z,99068.94
2023-03-27T11:06:01.384Z,99073.81
2023-03-27T11:08:47.027Z,99078.66
2023-03-27T11:11:29.502Z,99072.25
2023-03-27T11:14:03.633Z,99069.88
2023-03-27T11:16:41.288Z,99076.69
2023-03-27T11:19:11.208Z,99080.94
2023-03-27T11:21:50.879Z,99075.94
2023-03-27T11:24:46.284Z,99068.19
2023-03-27T11:27:30.829Z,99073.00
2023-03-27T11:30:23.581Z,99087.41
2023-03-27T11:33:43.409Z,99085.16
2023-03-27T11:36:48.306Z,99088.00
2023-03-27T11:39:23.964Z,99083.53
2023-03-27T11:42:02.328Z,99084.81
2023-03-27T11:44:30.404Z,99090.69
2023-03-27T11:47:42.202Z,99088.13
2023-03-27T11:50:36.828Z,99103.00
2023-03-27T11:53:28.255Z,99116.06
2023-03-27T11:56:13.043Z,99112.75
2023-03-27T11:59:31.470Z,99107.44
2023-03-27T12:03:09.577Z,99110.16
2023-03-27T12:06:14.115Z,99111.22
2023-03-27T12:09:05.306Z,99103.03
2023-03-27T12:11:39.415Z,99109.44
2023-03-27T12:14:41.020Z,99103.84
2023-03-27T12:17:31.689Z,99109.88
2023-03-27T12:20:51.980Z,99098.44
2023-03-27T12:23:49.460Z,99105.44
2023-03-27T12:26:39.525Z,99108.75
2023-03-27T12:29:55.975Z,99105.72
2023-03-27T12:33:06.727Z,99114.69
2023-03-27T12:35:43.702Z,99126.50
2023-03-27T12:38:32.144Z,99114.47
2023-03-27T12:41:20.707Z,99117.28
2023-03-27T12:43:53.416Z,99112.69
2023-03-27T12:46:20.557Z,99113.09
2023-03-27T12:49:06.389Z,99111.94
2023-03-27T12:52:06.821Z,99120.06
2023-03-27T12:54:38.496Z,99118.22
2023-03-27T12:57:18.458Z,99102.97
2023-03-27T12:59:48.404Z,99110.13
2023-03-27T13:02:16.104Z,99112.22
2023-03-27T13:05:26.896Z,99130.50
2023-03-27T13:08:42.491Z,99127.06
2023-03-27T13:11:34.660Z,99135.97
2023-03-27T13:15:03.864Z,99163.72
2023-03-27T13:17:56.174Z,99179.09
2023-03-27T13:20:40.563Z,99184.88
2023-03-27T13:23:25.338Z,99183.31
2023-03-27T13:26:17.860Z,99192.84
2023-03-27T13:28:54.233Z,99181.75
2023-03-27T13:31:46.164Z,99187.16
2023-03-27T13:34:32.764Z,99190.66
2023-03-27T13:37:36.765Z,99188.25
2023-03-27T13:40:30.921Z,99198.22
2023-03-27T13:43:21.429Z,99195.78
2023-03-27T13:45:52.442Z,99186.34
2023-03-27T13:48:59.031Z,99183.13
2023-03-27T13:51:42.751Z,99187.41
2023-03-27T13:54:53.913Z,99190.94
2023-03-27T13:58:11.964Z,99194.47
2023-03-27T14:01:38.525Z,99188.81
2023-03-27T14:04:48.727Z,99190.91
2023-03-27T14:08:02.584Z,99199.09
2023-03-27T14:10:57.395Z,99192.25
2023-03-27T14:14:06.939Z,99199.19
2023-03-27T14:17:05.356Z,99189.44
2023-03-27T14:19:44.273Z,99190.78
2023-03-27T14:23:13.089Z,99188.13
2023-03-27T14:25:54.713Z,99189.38
2023-03-27T14:28:31.602Z,99194.91
2023-03-27T14:31:06.102Z,99186.03
2023-03-27T14:33:34.482Z,99186.84
2023-03-27T14:36:05.349Z,99188.16
2023-03-27T14:38:36.145Z,99181.78
2023-03-27T14:41:06.861Z,99175.38
2023-03-27T14:43:33.988Z,99173.16
2023-03-27T14:46:23.429Z,99180.06
2023-03-27T14:48:56.816Z,99178.06
2023-03-27T14:51:34.859Z,99178.78
2023-03-27T14:54:12.028Z,99180.16
2023-03-27T14:56:47.378Z,99181.97
2023-03-27T14:59:30.168Z,99182.81
2023-03-27T15:02:01.821Z,99183.97
2023-03-27T15:04:31.389Z,99204.88
2023-03-27T15:07:28.689Z,99206.56
2023-03-27T15:10:07.909Z,99220.13
2023-03-27T15:12:35.435Z,99236.59
2023-03-27T15:15:04.854Z,99241.41
2023-03-27T15:17:38.568Z,99228.66
2023-03-27T15:20:10.456Z,99237.19
2023-03-27T15:22:44.948Z,99235.03
2023-03-27T15:25:24.760Z,99230.25
2023-03-27T15:27:56.055Z,99229.28
2023-03-27T15:30:28.598Z,99229.28
2023-03-27T15:33:01.718Z,99226.00
2023-03-27T15:35:45.705Z,99224.41
2023-03-27T15:38:17.118Z,99224.06
2023-03-27T15:40:58.594Z,99216.22
2023-03-27T15:43:29.709Z,99228.69
2023-03-27T15:46:15.894Z,99230.84
2023-03-27T15:48:51.255Z,99222.22
2023-03-27T15:51:21.072Z,99213.81
2023-03-27T15:53:56.236Z,99215.94
2023-03-27T15:56:34.381Z,99221.81
2023-03-27T15:59:12.808Z,99221.16
2023-03-27T16:01:52.189Z,99224.66
2023-03-27T16:07:05.996Z,99222.75
2023-03-27T16:09:56.520Z,99223.09
2023-03-27T16:12:32.072Z,99214.28
2023-03-27T16:15:00.662Z,99221.03
2023-03-27T16:17:56.670Z,99221.38
2023-03-27T16:20:23.446Z,99223.56
2023-03-27T16:22:53.868Z,99221.44
2023-03-27T16:25:20.756Z,99224.13
2023-03-27T16:27:55.947Z,99216.78
2023-03-27T16:30:35.910Z,99227.88
2023-03-27T16:33:03.711Z,99228.94
2023-03-27T16:35:32.403Z,99230.78
2023-03-27T16:37:59.862Z,99233.78
2023-03-27T16:40:27.390Z,99232.09
2023-03-27T16:42:54.315Z,99234.75
2023-03-27T16:45:21.383Z,99234.78
2023-03-27T16:47:50.723Z,99230.72
2023-03-27T16:50:24.434Z,99232.63
2023-03-27T16:52:51.491Z,99227.22
2023-03-27T16:55:18.704Z,99226.16
2023-03-27T16:57:50.402Z,99233.69
2023-03-27T17:00:19.919Z,99234.22
2023-03-27T17:02:47.539Z,99239.09
2023-03-27T17:05:14.885Z,99249.34
2023-03-27T17:07:42.186Z,99251.53
2023-03-27T17:10:12.125Z,99251.53
2023-03-27T17:12:38.968Z,99257.13
2023-03-27T17:15:07.137Z,99259.78
2023-03-27T17:17:34.295Z,99260.06
2023-03-27T17:20:01.339Z,99270.28
2023-03-27T17:22:29.917Z,99272.91
2023-03-27T17:25:01.001Z,99276.22
2023-03-27T17:27:28.194Z,99274.91
2023-03-27T17:29:58.248Z,99275.19
2023-03-27T17:32:26.661Z,99287.25
2023-03-27T17:34:54.138Z,99282.38
2023-03-27T17:37:22.267Z,99276.25
2023-03-27T17:39:50.342Z,99289.09
2023-03-27T17:42:17.436Z,99296.38
2023-03-27T17:44:45.436Z,99309.97
2023-03-27T17:47:13.796Z,99320.50
2023-03-27T17:49:47.490Z,99330.47
2023-03-27T17:52:14.401Z,99339.66
2023-03-27T17:54:41.516Z,99331.25
2023-03-27T17:57:08.414Z,99319.53
2023-03-27T17:59:36.335Z,99330.56
2023-03-27T18:02:03.207Z,99330.81
2023-03-27T18:04:30.998Z,99332.44
2023-03-27T18:06:57.849Z,99334.06
2023-03-27T18:09:25.723Z,99338.06
2023-03-27T18:11:52.580Z,99340.13
2023-03-27T18:14:19.403Z,99334.91
2023-03-27T18:16:46.212Z,99345.31
2023-03-27T18:19:16.104Z,99346.63
2023-03-27T18:21:43.423Z,99356.03
2023-03-27T18:24:10.571Z,99354.63
2023-03-27T18:26:37.432Z,99354.59
2023-03-27T18:29:04.951Z,99346.97
2023-03-27T18:31:31.957Z,99356.38
2023-03-27T18:33:58.774Z,99360.97
2023-03-27T18:36:25.604Z,99352.78
2023-03-27T18:38:52.431Z,99364.69
2023-03-27T18:41:19.338Z,99362.94
2023-03-27T18:43:46.664Z,99363.09
2023-03-27T18:46:16.629Z,99372.47
2023-03-27T18:48:45.979Z,99379.81
2023-03-27T18:51:13.261Z,99381.81
2023-03-27T18:53:40.561Z,99383.44
2023-03-27T18:56:08.159Z,99384.25
2023-03-27T18:58:35.993Z,99381.13
2023-03-27T19:01:12.375Z,99386.25
2023-03-27T19:03:40.345Z,99384.25
2023-03-27T19:06:10.182Z,99395.78
2023-03-27T19:08:38.262Z,99400.03
2023-03-27T19:11:06.866Z,99400.28
2023-03-27T19:13:33.859Z,99402.16
2023-03-27T19:16:01.231Z,99408.16
2023-03-27T19:18:42.496Z,99407.91
2023-03-27T19:21:09.489Z,99406.28
2023-03-27T19:23:36.286Z,99408.97
2023-03-27T19:26:13.360Z,99415.75
2023-03-27T19:28:40.296Z,99416.47
2023-03-27T19:31:08.650Z,99425.56
2023-03-27T19:33:36.097Z,99429.88
2023-03-27T19:36:03.626Z,99421.25
2023-03-27T19:38:30.702Z,99430.75
2023-03-27T19:40:57.726Z,99427.75
2023-03-27T19:43:25.116Z,99427.50
2023-03-27T19:46:04.425Z,99420.81
2023-03-27T19:48:41.248Z,99422.94
2023-03-27T19:51:08.021Z,99433.44
2023-03-27T19:53:37.242Z,99442.06
2023-03-27T19:56:04.335Z,99450.41
2023-03-27T19:58:31.386Z,99458.94
2023-03-27T20:00:59.616Z,99469.00
2023-03-27T20:03:27.305Z,99464.03
2023-03-27T20:06:06.893Z,99455.56
2023-03-27T20:08:38.144Z,99462.59
2023-03-27T20:11:06.812Z,99469.78
2023-03-27T20:13:42.310Z,99473.13
2023-03-27T20:16:16.403Z,99476.88
2023-03-27T20:18:43.838Z,99475.97
2023-03-27T20:21:13.531Z,99468.66
2023-03-27T20:23:41.870Z,99476.78
2023-03-27T20:26:09.312Z,99472.63
2023-03-27T20:28:36.844Z,99474.81
2023-03-27T20:31:07.164Z,99477.19
2023-03-27T20:33:33.971Z,99482.00
2023-03-27T20:36:01.094Z,99487.84
2023-03-27T20:38:31.287Z,99480.84
2023-03-27T20:41:03.476Z,99483.88
2023-03-27T20:43:36.047Z,99492.28
2023-03-27T20:46:04.455Z,99493.91
2023-03-27T20:48:53.974Z,99500.91
2023-03-27T20:51:23.945Z,99503.69
2023-03-27T20:53:58.682Z,99502.53
2023-03-27T20:56:25.767Z,99510.44
2023-03-27T20:58:52.582Z,99506.28
2023-03-27T21:01:19.675Z,99517.28
2023-03-27T21:03:49.522Z,99514.97
2023-03-27T21:06:20.472Z,99518.06
2023-03-27T21:08:47.771Z,99516.44
2023-03-27T21:11:15.128Z,99523.84
2023-03-27T21:13:41.897Z,99513.91
2023-03-27T21:16:09.539Z,99522.69
2023-03-27T21:18:36.292Z,99515.03
2023-03-27T21:21:03.362Z,99523.63
2023-03-27T21:23:30.607Z,99521.56
2023-03-27T21:25:58.122Z,99523.16
2023-03-27T21:28:25.666Z,99524.03
2023-03-27T21:30:52.542Z,99529.91
2023-03-27T21:33:19.416Z,99531.72
2023-03-27T21:35:48.277Z,99535.47
2023-03-27T21:38:17.456Z,99535.81
2023-03-27T21:40:47.103Z,99529.31
2023-03-27T21:43:14.154Z,99529.47
2023-03-27T21:45:41.275Z,99535.81
2023-03-27T21:48:15.359Z,99542.25
2023-03-27T21:50:46.044Z,99529.28
2023-03-27T21:53:13.497Z,99530.16
2023-03-27T21:55:40.721Z,99532.56
2023-03-27T21:58:11.204Z,99535.13
2023-03-27T22:00:38.243Z,99538.16
2023-03-27T22:03:08.288Z,99541.22
2023-03-27T22:05:39.301Z,99544.72
2023-03-27T22:08:07.806Z,99541.94
2023-03-27T22:10:39.688Z,99538.56
2023-03-27T22:13:12.828Z,99542.19
2023-03-27T22:15:40.451Z,99543.22
2023-03-27T22:18:10.226Z,99545.69
2023-03-27T22:20:45.706Z,99554.31
2023-03-27T22:23:23.874Z,99552.44
2023-03-27T22:25:59.589Z,99550.47
2023-03-27T22:28:28.916Z,99557.47
2023-03-27T22:31:05.818Z,99565.06
2023-03-27T22:33:33.374Z,99564.38
2023-03-27T22:36:04.452Z,99563.91
2023-03-27T22:38:38.737Z,99563.22
2023-03-27T22:41:08.462Z,99568.44
2023-03-27T22:43:39.012Z,99569.16
2023-03-27T22:46:10.112Z,99570.78
2023-03-27T22:48:37.687Z,99575.59
2023-03-27T22:51:05.699Z,99581.31
2023-03-27T22:53:32.994Z,99590.16
2023-03-27T22:56:01.384Z,99585.84
2023-03-27T22:58:29.817Z,99598.69
2023-03-27T23:00:57.168Z,99590.53
2023-03-27T23:03:27.300Z,99596.72
2023-03-27T23:05:54.633Z,99592.97
2023-03-27T23:08:27.049Z,99596.34
2023-03-27T23:10:56.970Z,99592.38
2023-03-27T23:13:26.346Z,99595.06
2023-03-27T23:15:54.194Z,99599.16
2023-03-27T23:18:24.469Z,99605.34
2023-03-27T23:20:56.916Z,99598.91
2023-03-27T23:23:25.165Z,99601.38
2023-03-27T23:25:52.779Z,99601.97
2023-03-27T23:28:20.351Z,99607.91
2023-03-27T23:30:59.707Z,99608.38
2023-03-27T23:33:28.205Z,99610.59
2023-03-27T23:36:04.700Z,99617.59
2023-03-27T23:38:32.858Z,99609.41
2023-03-27T23:41:01.668Z,99618.50
2023-03-27T23:43:30.373Z,99626.09
2023-03-27T23:46:01.082Z,99627.84
2023-03-27T23:48:29.541Z,99619.22
2023-03-27T23:50:57.358Z,99630.41
2023-03-27T23:53:27.395Z,99624.81
2023-03-27T23:55:56.278Z,99634.28
2023-03-27T23:58:25.231Z,99630.88
